Time;durP1;ratioP1;P1;durP2;ratioP2;P2;SDS_P1;SDS_P2;PMS_P1;PMS_P2;Temp;Humidity;BMP_temperature;BMP_pressure;BME280_temperature;BME280_humidity;BME280_pressure;Samples;Min_cycle;Max_cycle;Signal;HPM_P1;HPM_P2
2023/06/03 00:00:23;;;;;;;;;11.33;11.33;;;;;18.97;44.27;100962.63;4996472;28;45391;-57
2023/06/03 00:02:52;;;;;;;;;13.00;11.67;;;;;18.92;44.21;100948.75;4997639;28;45496;-57
2023/06/03 00:05:19;;;;;;;;;16.33;11.00;;;;;18.96;44.36;100956.44;4997776;28;45420;-58
2023/06/03 00:07:47;;;;;;;;;12.67;12.67;;;;;18.92;44.95;100960.25;4997370;28;45665;-59
2023/06/03 00:10:13;;;;;;;;;14.00;13.50;;;;;18.90;44.91;100958.66;4997268;28;45521;-57
2023/06/03 00:12:39;;;;;;;;;13.00;13.00;;;;;18.87;45.07;100962.38;4997353;28;45855;-58
2023/06/03 00:15:05;;;;;;;;;13.67;13.33;;;;;18.83;45.48;100955.50;4997461;28;45359;-58
2023/06/03 00:17:31;;;;;;;;;12.00;12.00;;;;;18.86;45.53;100959.78;4997047;28;45485;-56
2023/06/03 00:19:57;;;;;;;;;11.00;11.00;;;;;18.86;45.47;100959.78;4997158;28;45411;-59
2023/06/03 00:22:23;;;;;;;;;12.67;12.67;;;;;18.82;45.92;100969.78;4996766;28;45418;-57
2023/06/03 00:24:48;;;;;;;;;12.67;11.00;;;;;18.77;45.96;100959.44;4995990;28;45302;-58
2023/06/03 00:27:14;;;;;;;;;12.33;11.33;;;;;18.72;45.61;100960.63;4996249;28;46118;-57
2023/06/03 00:29:40;;;;;;;;;11.00;11.00;;;;;18.64;46.35;100958.47;5007933;28;45613;-54
2023/06/03 00:32:05;;;;;;;;;12.33;11.33;;;;;18.67;46.42;100958.28;4998422;28;45427;-56
2023/06/03 00:34:31;;;;;;;;;13.00;13.00;;;;;18.65;46.16;100951.34;5002957;28;45556;-55
2023/06/03 00:36:56;;;;;;;;;11.00;11.00;;;;;18.61;46.11;100947.16;4996325;28;45478;-56
2023/06/03 00:39:22;;;;;;;;;15.00;13.00;;;;;18.62;46.33;100949.72;5011311;28;45597;-57
2023/06/03 00:41:47;;;;;;;;;13.67;12.33;;;;;18.58;46.74;100942.88;5012511;28;45424;-56
2023/06/03 00:44:13;;;;;;;;;11.67;11.67;;;;;18.58;47.07;100945.53;4989018;28;45539;-60
2023/06/03 00:46:38;;;;;;;;;15.00;14.67;;;;;18.53;46.66;100940.50;4995307;28;45463;-58
2023/06/03 00:49:04;;;;;;;;;15.00;13.67;;;;;18.48;47.11;100934.63;4996634;28;45491;-56
2023/06/03 00:51:31;;;;;;;;;15.33;13.67;;;;;18.59;47.01;100946.38;4994962;28;45384;-58
2023/06/03 00:53:58;;;;;;;;;12.33;11.67;;;;;18.55;46.72;100925.28;4996185;28;45683;-56
2023/06/03 00:56:23;;;;;;;;;17.67;16.00;;;;;18.57;47.28;100932.34;4998495;28;45448;-57
2023/06/03 00:58:49;;;;;;;;;15.67;13.00;;;;;18.60;46.85;100940.97;4996581;28;45416;-57
2023/06/03 01:01:15;;;;;;;;;16.67;15.00;;;;;18.62;47.15;100932.88;5007323;28;45377;-59
2023/06/03 01:03:42;;;;;;;;;17.67;14.67;;;;;18.57;47.24;100933.19;4996843;28;45761;-57
2023/06/03 01:06:34;;;;;;;;;13.00;12.33;;;;;18.51;47.34;100942.41;4996253;28;46481;-56
2023/06/03 01:09:12;;;;;;;;;18.00;14.67;;;;;18.45;47.52;100931.28;4997401;28;45468;-57
2023/06/03 01:12:02;;;;;;;;;16.00;11.67;;;;;18.46;47.45;100933.00;4978926;28;45659;-55
2023/06/03 01:14:45;;;;;;;;;14.00;13.00;;;;;18.42;47.55;100928.81;4991057;28;45391;-56
2023/06/03 01:17:15;;;;;;;;;14.33;11.67;;;;;18.41;47.61;100929.78;4996420;28;45431;-61
2023/06/03 01:19:48;;;;;;;;;13.67;13.67;;;;;18.37;47.89;100922.91;4996246;28;45362;-60
2023/06/03 01:22:17;;;;;;;;;15.33;15.33;;;;;18.43;47.68;100928.72;4996771;28;45496;-55
2023/06/03 01:24:48;;;;;;;;;16.33;13.67;;;;;18.40;47.75;100915.59;4996360;28;45483;-55
2023/06/03 01:27:13;;;;;;;;;15.00;15.00;;;;;18.42;47.85;100929.66;4996050;28;46258;-55
2023/06/03 01:29:43;;;;;;;;;14.33;14.33;;;;;18.35;48.15;100928.34;4996360;28;45483;-57
2023/06/03 01:32:15;;;;;;;;;15.00;14.00;;;;;18.24;48.29;100909.50;4977853;28;45377;-58
2023/06/03 01:34:41;;;;;;;;;14.00;13.00;;;;;18.25;48.61;100925.41;4996059;28;45559;-55
2023/06/03 01:37:08;;;;;;;;;17.00;16.00;;;;;18.19;48.61;100915.16;4995969;28;45403;-55
2023/06/03 01:39:37;;;;;;;;;16.67;14.67;;;;;18.21;49.00;100923.00;4996008;28;45498;-55
2023/06/03 01:42:03;;;;;;;;;17.33;16.00;;;;;18.17;48.82;100910.88;4995931;28;45444;-55
2023/06/03 01:44:28;;;;;;;;;18.00;16.33;;;;;18.15;49.07;100916.28;4996074;28;45618;-56
2023/06/03 01:46:54;;;;;;;;;16.67;14.33;;;;;18.15;48.78;100912.75;4994932;28;45587;-56
2023/06/03 01:49:20;;;;;;;;;19.67;18.67;;;;;18.03;49.05;100901.06;4998517;28;45413;-59
2023/06/03 01:51:45;;;;;;;;;14.67;14.67;;;;;18.12;49.10;100916.47;4996233;28;45349;-57
2023/06/03 01:54:11;;;;;;;;;17.00;16.33;;;;;18.02;48.95;100920.63;4995756;28;45597;-57
2023/06/03 01:56:36;;;;;;;;;16.67;15.67;;;;;17.99;49.43;100916.34;5002344;28;45633;-57
2023/06/03 01:59:01;;;;;;;;;15.67;15.33;;;;;18.00;49.14;100927.84;5001554;28;45562;-59
2023/06/03 02:01:27;;;;;;;;;19.67;18.00;;;;;17.97;49.58;100912.06;4995621;28;45373;-54
2023/06/03 02:03:52;;;;;;;;;17.67;17.67;;;;;17.92;49.79;100915.03;5006696;28;45434;-57
2023/06/03 02:06:17;;;;;;;;;18.33;18.33;;;;;17.96;49.72;100918.34;4994909;28;45510;-59
2023/06/03 02:08:43;;;;;;;;;17.33;16.00;;;;;17.95;49.52;100917.50;5006066;28;45467;-53
2023/06/03 02:11:08;;;;;;;;;17.33;14.00;;;;;17.97;49.53;100923.56;4998043;28;45492;-56
2023/06/03 02:13:34;;;;;;;;;19.33;18.33;;;;;17.94;49.76;100918.44;5002437;28;47378;-56
2023/06/03 02:15:59;;;;;;;;;13.67;12.00;;;;;17.91;50.04;100921.28;4995492;28;45442;-53
2023/06/03 02:18:26;;;;;;;;;20.33;20.00;;;;;17.87;50.23;100914.47;4995601;28;45495;-53
2023/06/03 02:20:52;;;;;;;;;19.33;18.00;;;;;17.84;50.56;100912.00;4978097;28;45392;-53
2023/06/03 02:23:17;;;;;;;;;19.67;18.67;;;;;17.80;50.44;100916.63;4995475;28;45428;-57
2023/06/03 02:25:42;;;;;;;;;15.33;15.33;;;;;17.70;50.47;100906.59;4999994;28;46357;-56
2023/06/03 02:28:08;;;;;;;;;20.67;18.33;;;;;17.69;50.78;100908.41;4995317;28;48445;-54
2023/06/03 02:30:33;;;;;;;;;15.33;15.33;;;;;17.65;50.35;100905.09;4995776;28;45357;-57
2023/06/03 02:32:59;;;;;;;;;18.67;18.00;;;;;17.61;50.56;100911.53;4995398;28;45423;-57
2023/06/03 02:35:24;;;;;;;;;19.33;19.33;;;;;17.64;51.19;100913.16;4995326;28;46259;-58
2023/06/03 02:37:50;;;;;;;;;19.00;18.00;;;;;17.66;51.20;100908.59;4995602;28;45441;-53
2023/06/03 02:40:16;;;;;;;;;18.33;18.00;;;;;17.58;51.21;100898.41;4995342;28;45429;-56
2023/06/03 02:42:41;;;;;;;;;17.67;16.33;;;;;17.60;50.53;100909.81;4977284;28;45444;-58
2023/06/03 02:45:07;;;;;;;;;21.00;19.00;;;;;17.64;51.19;100902.50;4999976;28;45483;-55
2023/06/03 02:47:33;;;;;;;;;15.33;14.33;;;;;17.59;51.15;100913.41;5001973;28;45408;-56
2023/06/03 02:49:58;;;;;;;;;17.67;15.67;;;;;17.54;51.50;100910.16;5001765;28;45416;-52
2023/06/03 02:52:24;;;;;;;;;19.33;18.67;;;;;17.35;51.14;100886.47;5001750;28;45437;-57
2023/06/03 02:54:49;;;;;;;;;20.33;18.00;;;;;17.49;51.59;100914.94;5001613;28;50775;-56
2023/06/03 02:57:15;;;;;;;;;18.33;15.67;;;;;17.51;51.51;100909.50;5001569;28;45422;-55
2023/06/03 02:59:41;;;;;;;;;18.00;18.00;;;;;17.52;51.82;100906.75;5001864;28;45431;-53
2023/06/03 03:02:07;;;;;;;;;22.67;20.67;;;;;17.54;51.27;100901.34;5003767;28;45464;-57
2023/06/03 03:04:36;;;;;;;;;19.33;18.67;;;;;17.55;51.73;100905.72;5001342;28;46642;-56
2023/06/03 03:07:07;;;;;;;;;21.33;16.00;;;;;17.55;51.41;100909.25;4992746;28;45309;-56
2023/06/03 03:09:32;;;;;;;;;22.00;19.00;;;;;17.56;51.45;100907.44;5005149;28;45387;-56
2023/06/03 03:11:58;;;;;;;;;18.67;18.67;;;;;17.52;51.53;100905.91;5010955;28;45487;-57
2023/06/03 03:14:23;;;;;;;;;19.67;18.33;;;;;17.54;51.47;100911.97;5005138;28;46409;-56
2023/06/03 03:16:48;;;;;;;;;15.33;14.67;;;;;17.52;51.90;100911.22;5003720;28;49433;-57
2023/06/03 03:19:14;;;;;;;;;17.67;14.33;;;;;17.42;51.82;100901.13;5000878;28;45532;-55
2023/06/03 03:21:39;;;;;;;;;19.00;18.00;;;;;17.43;51.82;100908.13;5001518;28;45411;-57
2023/06/03 03:24:05;;;;;;;;;18.00;17.67;;;;;17.42;51.93;100911.75;5001253;28;45536;-56
2023/06/03 03:26:31;;;;;;;;;18.67;17.67;;;;;17.42;51.97;100916.22;5001373;28;45484;-59
2023/06/03 03:28:56;;;;;;;;;17.00;17.00;;;;;17.44;52.01;100909.88;5001547;28;45483;-55
2023/06/03 03:31:22;;;;;;;;;19.00;18.00;;;;;17.42;52.29;100900.28;5001461;28;45582;-57
2023/06/03 03:33:50;;;;;;;;;18.33;15.67;;;;;17.48;51.76;100913.19;5001061;28;46348;-59
2023/06/03 03:36:22;;;;;;;;;19.00;17.00;;;;;17.43;51.46;100908.13;5001293;28;45450;-58
2023/06/03 03:39:01;;;;;;;;;19.00;17.33;;;;;17.44;52.12;100901.03;5001249;28;45313;-58
2023/06/03 03:41:26;;;;;;;;;21.67;19.33;;;;;17.52;51.86;100908.56;5001029;28;45582;-57
2023/06/03 03:43:52;;;;;;;;;16.33;15.67;;;;;17.41;52.17;100899.41;5000972;28;46064;-56
2023/06/03 03:46:18;;;;;;;;;18.67;18.67;;;;;17.51;51.60;100901.53;5001066;28;45441;-54
2023/06/03 03:48:44;;;;;;;;;17.67;17.00;;;;;17.52;51.67;100912.09;5001142;28;45471;-57
2023/06/03 03:51:12;;;;;;;;;18.67;17.00;;;;;17.41;51.77;100915.38;5001077;28;45534;-57
2023/06/03 03:53:43;;;;;;;;;17.67;17.67;;;;;17.43;51.96;100908.13;5000907;28;45560;-58
2023/06/03 03:56:09;;;;;;;;;19.00;19.00;;;;;17.43;51.98;100916.13;4966803;28;45454;-57
2023/06/03 03:58:42;;;;;;;;;21.67;17.67;;;;;17.37;51.93;100910.31;4997854;28;45543;-54
2023/06/03 04:01:09;;;;;;;;;18.00;18.00;;;;;17.37;51.98;100916.47;4997607;28;45435;-57
2023/06/03 04:03:40;;;;;;;;;21.00;16.67;;;;;17.28;52.05;100911.72;4997450;28;45517;-57
2023/06/03 04:06:13;;;;;;;;;17.33;17.33;;;;;17.27;51.75;100919.78;4997493;28;45433;-57
2023/06/03 04:08:45;;;;;;;;;23.00;21.67;;;;;17.26;52.36;100915.41;4998585;28;45395;-60
2023/06/03 04:11:28;;;;;;;;;16.67;16.00;;;;;17.22;52.54;100920.91;4999634;28;45474;-57
2023/06/03 04:13:55;;;;;;;;;18.67;17.00;;;;;17.29;52.28;100923.22;5004932;28;46077;-59
2023/06/03 04:16:42;;;;;;;;;16.00;16.00;;;;;17.26;52.63;100918.91;4997360;28;45460;-57
2023/06/03 04:19:13;;;;;;;;;22.33;19.00;;;;;17.28;52.55;100910.88;4979836;28;45522;-57
2023/06/03 04:21:38;;;;;;;;;21.00;19.67;;;;;17.24;52.64;100910.16;4996480;28;45477;-57
2023/06/03 04:24:07;;;;;;;;;20.67;19.33;;;;;17.18;52.33;100916.69;4997083;28;45415;-56
2023/06/03 04:26:34;;;;;;;;;23.67;19.33;;;;;17.13;52.56;100917.91;4978948;28;45477;-57
2023/06/03 04:28:59;;;;;;;;;18.67;18.67;;;;;17.08;52.37;100914.66;5002907;28;45533;-56
2023/06/03 04:31:25;;;;;;;;;18.00;18.00;;;;;17.13;53.00;100920.56;4997097;28;45361;-56
2023/06/03 04:33:50;;;;;;;;;16.33;13.67;;;;;17.15;52.21;100930.16;4996336;28;46619;-54
2023/06/03 04:36:15;;;;;;;;;20.00;19.00;;;;;16.93;52.46;100897.81;5001768;28;45447;-56
2023/06/03 04:38:41;;;;;;;;;19.33;19.33;;;;;17.03;52.96;100922.03;5002926;28;45466;-55
2023/06/03 04:41:10;;;;;;;;;18.00;17.00;;;;;16.97;53.13;100924.09;5005365;28;45392;-53
2023/06/03 04:43:38;;;;;;;;;19.67;18.00;;;;;17.04;53.32;100937.91;4997183;28;46472;-56
2023/06/03 04:46:05;;;;;;;;;16.67;15.67;;;;;17.05;53.22;100939.59;4997346;28;45397;-57
2023/06/03 04:48:30;;;;;;;;;19.67;17.67;;;;;17.03;52.95;100937.97;4997242;28;45376;-60
2023/06/03 04:50:56;;;;;;;;;21.33;18.33;;;;;17.00;52.70;100937.22;5003162;28;45517;-57
2023/06/03 04:53:21;;;;;;;;;23.00;19.00;;;;;17.00;53.11;100941.66;5002213;28;45539;-57
2023/06/03 04:55:46;;;;;;;;;19.33;17.00;;;;;16.99;53.47;100934.66;4997070;28;45504;-56
2023/06/03 04:58:12;;;;;;;;;16.67;16.67;;;;;17.03;53.06;100938.84;5007319;28;45940;-56
2023/06/03 05:00:40;;;;;;;;;21.67;18.00;;;;;17.06;53.17;100945.78;4995151;28;45449;-57
2023/06/03 05:03:08;;;;;;;;;16.33;16.33;;;;;17.03;53.20;100949.47;5006493;28;45478;-60
2023/06/03 05:05:35;;;;;;;;;21.67;19.00;;;;;17.03;52.75;100940.63;5000198;28;45533;-58
2023/06/03 05:08:01;;;;;;;;;24.67;24.67;;;;;17.06;52.72;100937.81;4996925;28;45528;-56
2023/06/03 05:10:27;;;;;;;;;21.67;18.67;;;;;17.17;52.53;100948.69;4997734;28;45480;-58
2023/06/03 05:12:53;;;;;;;;;22.67;21.33;;;;;17.19;53.19;100957.41;4996957;28;45586;-58
2023/06/03 05:15:19;;;;;;;;;20.33;17.33;;;;;17.17;52.56;100949.56;4997142;28;45526;-53
2023/06/03 05:17:44;;;;;;;;;18.67;17.00;;;;;17.17;52.52;100956.69;4980854;28;45493;-57
2023/06/03 05:20:10;;;;;;;;;23.00;18.67;;;;;17.22;53.10;100957.25;4998362;28;45412;-57
2023/06/03 05:22:36;;;;;;;;;18.00;16.33;;;;;17.23;52.25;100943.88;5000638;28;45527;-58
2023/06/03 05:25:03;;;;;;;;;18.33;18.33;;;;;17.25;52.54;100949.13;5003249;28;45350;-57
2023/06/03 05:27:29;;;;;;;;;18.67;17.67;;;;;17.29;52.52;100953.28;4996881;28;45582;-60
2023/06/03 05:29:54;;;;;;;;;18.67;17.33;;;;;17.34;52.31;100950.38;4996702;28;45556;-62
2023/06/03 05:32:20;;;;;;;;;20.33;17.00;;;;;17.32;52.09;100949.59;4979017;28;46398;-57
2023/06/03 05:34:45;;;;;;;;;17.33;16.33;;;;;17.29;52.12;100944.47;4996490;28;45459;-59
2023/06/03 05:37:10;;;;;;;;;21.00;19.33;;;;;17.27;52.79;100939.22;4996479;28;52283;-55
2023/06/03 05:39:36;;;;;;;;;23.33;21.33;;;;;17.27;52.25;100939.22;4997373;28;45510;-60
2023/06/03 05:42:01;;;;;;;;;21.00;18.67;;;;;17.21;52.33;100934.28;4996173;28;46146;-65
2023/06/03 05:44:26;;;;;;;;;20.67;17.67;;;;;17.23;52.28;100948.34;4993755;28;45487;-68
2023/06/03 05:46:52;;;;;;;;;21.00;17.67;;;;;17.21;52.37;100943.09;4994934;28;53536;-71
2023/06/03 05:49:17;;;;;;;;;22.67;19.67;;;;;17.22;52.21;100958.13;4996364;28;45585;-69
2023/06/03 05:51:42;;;;;;;;;19.33;17.67;;;;;17.23;52.79;100949.19;5000080;28;45419;-69
2023/06/03 05:54:07;;;;;;;;;19.00;18.00;;;;;17.18;52.28;100953.91;4995739;28;45389;-66
2023/06/03 05:56:33;;;;;;;;;15.33;15.33;;;;;17.24;52.48;100950.03;5001853;28;45468;-60
2023/06/03 05:58:58;;;;;;;;;22.00;19.67;;;;;17.23;52.63;100958.97;4995317;28;45408;-69
2023/06/03 06:01:23;;;;;;;;;18.33;17.33;;;;;17.18;52.38;100945.09;5005653;28;46484;-69
2023/06/03 06:03:49;;;;;;;;;21.00;19.00;;;;;17.26;52.86;100963.25;4995829;28;45464;-68
2023/06/03 06:06:15;;;;;;;;;21.67;20.33;;;;;17.17;52.71;100946.03;5005107;28;45541;-66
2023/06/03 06:08:41;;;;;;;;;20.00;17.67;;;;;17.22;52.27;100957.25;4995472;28;45495;-59
2023/06/03 06:11:07;;;;;;;;;20.67;17.67;;;;;17.23;52.47;100953.66;4997729;28;45391;-59
2023/06/03 06:13:32;;;;;;;;;22.33;20.00;;;;;17.29;53.17;100966.59;5006307;28;45380;-59
2023/06/03 06:16:00;;;;;;;;;20.67;18.00;;;;;17.35;52.24;100960.91;4995490;28;45459;-59
2023/06/03 06:18:25;;;;;;;;;19.67;17.33;;;;;17.41;52.36;100957.06;4997608;28;45507;-50
2023/06/03 06:20:51;;;;;;;;;21.00;18.33;;;;;17.44;52.05;100957.72;4995534;28;45487;-51
2023/06/03 06:23:16;;;;;;;;;18.67;18.67;;;;;17.51;51.73;100960.03;4995418;28;45423;-50
2023/06/03 06:25:49;;;;;;;;;19.67;19.67;;;;;17.50;51.96;100956.53;5004378;28;45511;-60
2023/06/03 06:28:19;;;;;;;;;21.00;19.33;;;;;17.60;51.95;100967.47;4997011;28;45528;-60
2023/06/03 06:30:45;;;;;;;;;18.33;18.00;;;;;17.61;51.81;100964.72;4995227;28;46236;-59
2023/06/03 06:33:13;;;;;;;;;17.00;15.33;;;;;17.63;51.93;100956.66;4995241;28;45411;-60
2023/06/03 06:35:38;;;;;;;;;21.00;17.33;;;;;17.67;51.64;100968.81;4995208;28;45319;-60
2023/06/03 06:38:04;;;;;;;;;23.00;21.67;;;;;17.63;51.85;100957.50;4995188;28;45618;-59
2023/06/03 06:40:33;;;;;;;;;19.00;17.33;;;;;17.70;51.49;100967.78;4994945;28;46211;-60
2023/06/03 06:42:58;;;;;;;;;18.67;17.33;;;;;17.75;51.61;100968.38;4995782;28;45413;-60
2023/06/03 06:45:27;;;;;;;;;20.33;19.33;;;;;17.74;51.13;100964.00;4995348;28;46019;-59
2023/06/03 06:48:06;;;;;;;;;22.67;20.33;;;;;17.74;51.35;100964.00;4994936;28;45356;-59
2023/06/03 06:50:46;;;;;;;;;18.00;18.00;;;;;17.80;51.15;100968.97;4994624;28;45467;-59
2023/06/03 06:53:14;;;;;;;;;17.33;17.33;;;;;17.87;51.63;100967.69;5002200;28;45416;-60
2023/06/03 06:55:47;;;;;;;;;21.00;21.00;;;;;17.91;51.23;100971.84;4998751;28;45560;-59
2023/06/03 06:58:13;;;;;;;;;21.33;17.00;;;;;17.83;50.81;100955.50;4995129;28;45524;-60
2023/06/03 07:00:39;;;;;;;;;21.00;19.00;;;;;17.95;51.19;100967.22;4993167;28;46368;-60
2023/06/03 07:03:12;;;;;;;;;17.00;16.67;;;;;18.05;51.13;100981.66;4981532;28;45376;-58
2023/06/03 07:05:38;;;;;;;;;19.33;17.67;;;;;18.09;51.19;100977.88;4967083;28;45434;-59
2023/06/03 07:08:04;;;;;;;;;15.00;15.00;;;;;18.17;50.86;100980.09;4986674;28;45330;-59
2023/06/03 07:10:29;;;;;;;;;17.00;16.67;;;;;18.21;49.98;100986.91;4995544;28;46833;-59
2023/06/03 07:12:56;;;;;;;;;19.00;18.67;;;;;18.17;50.37;100978.28;4994702;28;45480;-60
2023/06/03 07:15:22;;;;;;;;;17.67;16.67;;;;;18.20;50.38;100978.06;4994653;28;45448;-60
2023/06/03 07:17:52;;;;;;;;;20.33;20.33;;;;;18.23;49.96;100972.56;4996527;28;45367;-60
2023/06/03 07:20:20;;;;;;;;;20.33;20.00;;;;;18.24;50.11;100965.41;4995542;28;45920;-59
2023/06/03 07:22:46;;;;;;;;;16.67;16.00;;;;;18.40;49.86;100971.50;4994935;28;45372;-60
2023/06/03 07:25:45;;;;;;;;;20.00;18.33;;;;;18.47;49.67;100975.50;4994470;28;45463;-58
2023/06/03 07:28:19;;;;;;;;;18.33;18.00;;;;;18.53;49.70;100979.59;4961677;28;45722;-58
2023/06/03 07:30:47;;;;;;;;;17.33;16.33;;;;;18.48;49.53;100960.38;4994639;28;45440;-59
2023/06/03 07:33:21;;;;;;;;;19.33;16.00;;;;;18.60;49.51;100974.75;4997857;28;45393;-59
2023/06/03 07:35:52;;;;;;;;;16.33;16.33;;;;;18.61;49.61;100971.97;4996113;28;45345;-59
2023/06/03 07:38:36;;;;;;;;;21.00;19.00;;;;;18.55;49.42;100961.72;4995971;28;45502;-59
2023/06/03 07:41:01;;;;;;;;;22.67;20.00;;;;;18.53;49.35;100958.28;4997640;28;46533;-59
2023/06/03 07:43:27;;;;;;;;;17.00;15.33;;;;;18.52;49.14;100965.44;4996473;28;45537;-61
2023/06/03 07:45:53;;;;;;;;;15.33;14.67;;;;;18.55;49.13;100975.88;4996888;28;45407;-59
2023/06/03 07:48:19;;;;;;;;;18.00;16.33;;;;;18.56;48.76;100974.06;4996198;28;45422;-59
2023/06/03 07:50:46;;;;;;;;;17.00;17.00;;;;;18.56;48.91;100976.72;4997651;28;45978;-59
2023/06/03 07:53:21;;;;;;;;;18.00;16.00;;;;;18.61;49.00;100971.13;4997537;28;45454;-59
2023/06/03 07:55:47;;;;;;;;;17.67;16.67;;;;;18.63;49.25;100969.22;4997463;28;45498;-59
2023/06/03 07:58:14;;;;;;;;;16.00;14.67;;;;;18.69;49.10;100972.34;4997843;28;45426;-59
2023/06/03 08:00:42;;;;;;;;;17.33;16.67;;;;;18.65;48.93;100962.84;4997544;28;45565;-59
2023/06/03 08:03:08;;;;;;;;;19.00;19.00;;;;;18.73;48.83;100979.22;4997447;28;45518;-59
2023/06/03 08:05:35;;;;;;;;;19.00;15.67;;;;;18.76;49.11;100970.19;4997600;28;45432;-59
2023/06/03 08:08:05;;;;;;;;;15.33;15.33;;;;;18.82;49.00;100963.63;4997436;28;45654;-59
2023/06/03 08:10:33;;;;;;;;;15.33;14.33;;;;;18.84;48.88;100967.03;4997904;28;45941;-59
2023/06/03 08:12:58;;;;;;;;;16.33;14.33;;;;;18.85;48.66;100958.94;4997302;28;45435;-59
2023/06/03 08:15:27;;;;;;;;;15.00;15.00;;;;;18.93;48.69;100961.13;4997403;28;45455;-59
2023/06/03 08:17:52;;;;;;;;;16.33;14.33;;;;;18.95;48.74;100960.06;4997299;28;45407;-59
2023/06/03 08:20:28;;;;;;;;;15.67;15.67;;;;;18.89;48.25;100948.97;4997340;28;45444;-59
2023/06/03 08:22:55;;;;;;;;;16.33;15.00;;;;;19.03;48.27;100964.06;5002752;28;45429;-59
2023/06/03 08:25:21;;;;;;;;;17.67;15.33;;;;;19.02;48.86;100949.00;4990917;28;45614;-58
2023/06/03 08:27:47;;;;;;;;;18.33;17.33;;;;;19.12;48.00;100952.78;4997063;28;45471;-59
2023/06/03 08:30:14;;;;;;;;;20.33;17.00;;;;;19.16;48.33;100957.81;4997099;28;46072;-59
2023/06/03 08:32:40;;;;;;;;;16.33;16.33;;;;;19.07;48.14;100942.41;5007980;28;45518;-59
2023/06/03 08:35:07;;;;;;;;;17.33;17.00;;;;;19.18;48.27;100950.56;4997436;28;45539;-62
2023/06/03 08:37:33;;;;;;;;;17.33;17.33;;;;;19.20;47.75;100945.97;4996844;28;45372;-63
2023/06/03 08:40:00;;;;;;;;;14.00;14.00;;;;;19.22;48.02;100945.03;4999195;28;46048;-63
2023/06/03 08:42:36;;;;;;;;;15.33;15.33;;;;;19.26;47.87;100949.19;5000233;28;45544;-57
2023/06/03 08:45:08;;;;;;;;;60.50;48.50;;;;;19.32;47.66;100954.16;4995752;28;45448;-57
2023/06/03 08:47:33;;;;;;;;;66.50;53.75;;;;;19.35;48.07;100957.44;4991145;28;45434;-57
2023/06/03 08:50:00;;;;;;;;;37.67;33.33;;;;;19.37;47.61;100958.22;4996497;28;46027;-54
2023/06/03 08:52:32;;;;;;;;;29.67;29.00;;;;;19.34;47.59;100950.41;4987410;28;45739;-56
2023/06/03 08:55:00;;;;;;;;;55.75;47.00;;;;;19.56;50.63;100941.81;4997149;28;45546;-60
2023/06/03 08:57:30;;;;;;;;;35.67;33.00;;;;;19.82;48.09;100926.72;5000201;28;45562;-60
2023/06/03 08:59:57;;;;;;;;;27.67;27.67;;;;;20.09;47.52;100936.44;5000979;28;46422;-59
2023/06/03 09:02:24;;;;;;;;;25.33;25.00;;;;;20.35;46.88;100942.63;5000192;28;45451;-56
2023/06/03 09:04:49;;;;;;;;;16.67;16.67;;;;;20.57;45.77;100938.47;4999526;28;45436;-61
2023/06/03 09:07:15;;;;;;;;;18.00;18.00;;;;;20.80;45.52;100934.13;4995566;28;45558;-57
2023/06/03 09:09:41;;;;;;;;;23.67;19.33;;;;;20.93;45.54;100930.44;5010592;28;46025;-58
2023/06/03 09:12:08;;;;;;;;;16.00;15.67;;;;;21.18;44.65;100939.31;4996654;28;45468;-58
2023/06/03 09:14:35;;;;;;;;;23.00;21.67;;;;;21.31;44.45;100937.44;5001804;28;45504;-59
2023/06/03 09:17:00;;;;;;;;;19.67;17.67;;;;;21.47;44.06;100939.84;4995104;28;45507;-59
2023/06/03 09:19:26;;;;;;;;;12.67;11.00;;;;;21.59;43.61;100935.38;4995137;28;46626;-57
2023/06/03 09:21:56;;;;;;;;;16.67;12.67;;;;;21.72;43.59;100943.31;4993919;28;45995;-60
2023/06/03 09:24:22;;;;;;;;;14.00;12.67;;;;;21.83;43.71;100938.84;5006154;28;45480;-61
2023/06/03 09:26:47;;;;;;;;;17.00;17.00;;;;;21.90;44.15;100927.69;4996185;28;45388;-61
2023/06/03 09:29:13;;;;;;;;;18.33;16.67;;;;;21.99;43.83;100929.63;4996701;28;46652;-60
2023/06/03 09:31:40;;;;;;;;;12.67;12.67;;;;;22.05;44.01;100923.78;4998017;28;45681;-60
2023/06/03 09:34:05;;;;;;;;;10.67;10.67;;;;;22.13;43.83;100925.84;5005833;28;45396;-60
2023/06/03 09:36:43;;;;;;;;;15.00;14.00;;;;;22.27;43.40;100947.97;4996061;28;45460;-60
2023/06/03 09:39:10;;;;;;;;;18.33;13.67;;;;;22.31;43.50;100945.88;5004090;28;45646;-60
2023/06/03 09:41:36;;;;;;;;;10.67;10.67;;;;;22.39;43.36;100939.91;4980980;28;45478;-60
2023/06/03 09:44:05;;;;;;;;;11.67;10.00;;;;;22.46;43.15;100949.16;5007948;28;45384;-58
2023/06/03 09:46:32;;;;;;;;;13.67;13.67;;;;;22.52;42.75;100948.69;4996931;28;45391;-60
2023/06/03 09:49:16;;;;;;;;;11.67;11.67;;;;;22.52;42.50;100946.00;4995820;28;46064;-60
2023/06/03 09:51:43;;;;;;;;;13.00;12.00;;;;;22.55;42.73;100935.03;4995833;28;45409;-58
2023/06/03 09:54:11;;;;;;;;;13.33;12.33;;;;;22.64;42.33;100950.34;4995033;28;45457;-60
2023/06/03 09:56:37;;;;;;;;;12.00;12.00;;;;;22.69;42.49;100950.84;4997074;28;45488;-58
2023/06/03 09:59:15;;;;;;;;;12.33;12.00;;;;;22.76;41.96;100943.16;4995423;28;46182;-59
2023/06/03 10:01:41;;;;;;;;;11.67;11.67;;;;;22.80;42.14;100946.44;4995950;28;45477;-59
2023/06/03 10:04:07;;;;;;;;;13.00;11.00;;;;;22.82;41.84;100939.13;4995866;28;45395;-59
2023/06/03 10:06:35;;;;;;;;;9.00;9.00;;;;;22.85;41.35;100931.69;4994953;28;45417;-59
2023/06/03 10:09:17;;;;;;;;;13.00;9.50;;;;;22.88;41.50;100938.63;4998890;28;45528;-58
2023/06/03 10:11:50;;;;;;;;;11.00;11.00;;;;;22.90;41.04;100936.69;5001047;28;45407;-58
2023/06/03 10:14:26;;;;;;;;;9.33;9.33;;;;;22.93;40.57;100926.53;4995807;28;45292;-55
2023/06/03 10:17:10;;;;;;;;;13.50;12.00;;;;;22.99;40.81;100933.25;4995184;28;45432;-57
2023/06/03 10:19:38;;;;;;;;;10.00;10.00;;;;;23.03;40.24;100937.41;4995371;28;45539;-59
2023/06/03 10:22:05;;;;;;;;;10.33;10.33;;;;;23.03;40.47;100918.63;4995423;28;45404;-55
2023/06/03 10:24:33;;;;;;;;;16.67;15.33;;;;;23.11;40.31;100920.69;4995370;28;45403;-61
2023/06/03 10:26:59;;;;;;;;;11.00;10.75;;;;;23.17;39.73;100936.25;4996893;28;45534;-56
2023/06/03 10:29:25;;;;;;;;;11.50;11.00;;;;;23.18;39.68;100929.91;4995225;28;46440;-56
2023/06/03 10:31:54;;;;;;;;;12.00;12.00;;;;;23.24;39.78;100932.09;5000402;28;45417;-53
2023/06/03 10:34:20;;;;;;;;;9.25;9.25;;;;;23.27;39.81;100923.78;5003129;28;45380;-59
2023/06/03 10:36:56;;;;;;;;;11.50;11.50;;;;;23.32;39.87;100916.19;4995518;28;45506;-64
2023/06/03 10:39:26;;;;;;;;;18.67;18.67;;;;;23.40;39.77;100920.94;4991482;28;45506;-61
2023/06/03 10:41:57;;;;;;;;;16.25;15.25;;;;;23.42;39.22;100920.78;4994823;28;45480;-62
2023/06/03 10:44:23;;;;;;;;;9.25;9.25;;;;;23.43;39.00;100920.66;4997286;28;45509;-63
2023/06/03 10:46:53;;;;;;;;;10.50;10.50;;;;;23.50;39.04;100921.84;5004789;28;45541;-60
2023/06/03 10:49:21;;;;;;;;;13.67;12.33;;;;;23.57;38.61;100924.88;4983500;28;47650;-57
2023/06/03 10:52:18;;;;;;;;;13.00;13.00;;;;;23.60;38.69;100909.34;4996676;28;45396;-62
2023/06/03 10:55:11;;;;;;;;;11.25;9.75;;;;;23.67;38.49;100923.09;4999441;28;45444;-61
2023/06/03 10:57:43;;;;;;;;;11.25;9.00;;;;;23.71;38.12;100932.63;4996976;28;45443;-63
2023/06/03 11:00:09;;;;;;;;;10.25;10.25;;;;;23.73;37.73;100922.59;5003380;28;46537;-68
2023/06/03 11:03:05;;;;;;;;;13.75;12.75;;;;;23.84;38.19;100931.56;4998859;28;45542;-67
2023/06/03 11:05:30;;;;;;;;;11.50;10.00;;;;;23.83;38.28;100922.66;4997209;28;45550;-71
2023/06/03 11:07:55;;;;;;;;;12.75;11.75;;;;;23.91;38.06;100916.63;4996840;28;45485;-66
2023/06/03 11:10:41;;;;;;;;;13.67;12.00;;;;;23.96;38.23;100922.44;5000891;28;46213;-66
2023/06/03 11:13:08;;;;;;;;;11.50;10.50;;;;;23.98;37.92;100921.31;4981072;28;45551;-67